createdAt,value
2019-05-17T00:03:46.962Z,9.18
2019-05-17T00:08:51.818Z,9.22
2019-05-17T00:13:57.208Z,9.25
2019-05-17T00:19:02.504Z,9.09
2019-05-17T00:24:07.816Z,9.10
2019-05-17T00:29:13.140Z,9.00
2019-05-17T00:34:18.455Z,9.14
2019-05-17T00:39:23.947Z,9.13
2019-05-17T00:44:29.227Z,9.08
2019-05-17T00:49:36.973Z,9.15
2019-05-17T00:54:42.440Z,9.13
2019-05-17T00:59:48.004Z,9.17
2019-05-17T01:04:53.315Z,9.09
2019-05-17T01:09:58.906Z,9.10
2019-05-17T01:15:04.229Z,9.13
2019-05-17T01:20:10.110Z,9.18
2019-05-17T01:25:17.190Z,9.08
2019-05-17T01:30:22.542Z,9.13
2019-05-17T01:35:27.769Z,9.07
2019-05-17T01:40:32.980Z,9.08
2019-05-17T01:45:38.524Z,9.05
2019-05-17T01:50:46.455Z,9.04
2019-05-17T01:55:52.167Z,9.03
2019-05-17T02:00:57.549Z,8.98
2019-05-17T02:06:02.891Z,8.98
2019-05-17T02:11:08.122Z,8.99
2019-05-17T02:16:13.368Z,8.93
2019-05-17T02:21:18.657Z,8.96
2019-05-17T02:26:26.566Z,9.05
2019-05-17T02:31:32.854Z,9.02
2019-05-17T02:36:38.272Z,8.97
2019-05-17T02:41:43.651Z,8.96
2019-05-17T02:46:49.143Z,8.94
2019-05-17T02:51:54.729Z,8.99
2019-05-17T02:57:03.063Z,8.84
2019-05-17T03:02:08.000Z,8.86
2019-05-17T03:07:13.706Z,8.91
2019-05-17T03:12:19.347Z,8.89
2019-05-17T03:17:24.937Z,8.92
2019-05-17T03:22:33.252Z,8.96
2019-05-17T03:27:37.520Z,8.97
2019-05-17T03:32:47.582Z,8.89
2019-05-17T03:37:53.282Z,8.84
2019-05-17T03:42:58.675Z,8.96
2019-05-17T03:48:05.174Z,8.88
2019-05-17T03:53:13.216Z,8.85
2019-05-17T03:58:17.490Z,8.87
2019-05-17T04:03:23.292Z,8.90
2019-05-17T04:08:29.027Z,8.84
2019-05-17T04:13:34.523Z,8.88
2019-05-17T04:18:43.488Z,8.81
2019-05-17T04:23:47.205Z,8.81
2019-05-17T04:28:53.442Z,8.75
2019-05-17T04:34:02.647Z,8.67
2019-05-17T04:39:07.842Z,8.81
2019-05-17T04:44:13.143Z,8.78
2019-05-17T04:49:18.465Z,8.83
2019-05-17T04:54:23.765Z,8.84
2019-05-17T04:59:33.896Z,8.82
2019-05-17T05:04:38.610Z,8.74
2019-05-17T05:09:43.974Z,8.82
2019-05-17T05:14:52.186Z,8.68
2019-05-17T05:19:56.842Z,8.71
2019-05-17T05:25:02.363Z,8.87
2019-05-17T05:30:07.909Z,8.92
2019-05-17T05:35:13.438Z,8.97
2019-05-17T05:40:18.818Z,8.96
2019-05-17T05:45:24.037Z,8.92
2019-05-17T05:50:29.298Z,9.02
2019-05-17T05:55:34.593Z,9.06
2019-05-17T06:00:42.810Z,9.10
2019-05-17T06:05:47.172Z,9.04
2019-05-17T06:10:53.064Z,9.01
2019-05-17T06:15:58.636Z,9.09
2019-05-17T06:21:03.887Z,9.07
2019-05-17T06:26:12.293Z,9.16
2019-05-17T06:31:16.949Z,9.28
2019-05-17T06:36:24.460Z,9.37
2019-05-17T06:41:32.193Z,9.33
2019-05-17T06:46:37.017Z,9.49
2019-05-17T06:51:42.734Z,9.43
2019-05-17T06:56:48.351Z,9.63
2019-05-17T07:01:54.337Z,9.65
2019-05-17T07:07:17.173Z,9.84
2019-05-17T07:12:22.418Z,10.00
2019-05-17T07:17:30.254Z,10.00
2019-05-17T07:22:34.793Z,10.00
2019-05-17T07:27:45.296Z,9.99
2019-05-17T07:32:49.615Z,10.01
2019-05-17T07:37:54.118Z,10.02
2019-05-17T07:43:09.768Z,10.14
2019-05-17T07:48:06.829Z,10.13
2019-05-17T07:53:12.137Z,10.15
2019-05-17T07:58:17.377Z,10.21
2019-05-17T08:03:24.811Z,10.44
2019-05-17T08:08:30.932Z,10.54
2019-05-17T08:13:36.805Z,10.32
2019-05-17T08:18:42.092Z,10.58
2019-05-17T08:23:47.394Z,10.53
2019-05-17T08:28:53.501Z,10.59
2019-05-17T08:34:00.045Z,10.74
2019-05-17T08:39:07.197Z,10.85
2019-05-17T08:44:12.690Z,11.10
2019-05-17T08:49:20.213Z,11.00
2019-05-17T08:54:25.523Z,11.04
2019-05-17T08:59:30.879Z,11.16
2019-05-17T09:04:36.246Z,11.29
2019-05-17T09:09:41.495Z,11.35
2019-05-17T09:14:49.472Z,11.31
2019-05-17T09:19:55.269Z,11.40
2019-05-17T09:25:00.547Z,11.42
2019-05-17T09:30:06.535Z,11.49
2019-05-17T09:35:11.887Z,11.58
2019-05-17T09:40:17.326Z,11.34
2019-05-17T09:45:22.734Z,11.31
2019-05-17T09:50:29.396Z,11.52
2019-05-17T09:55:35.155Z,11.57
2019-05-17T10:00:41.280Z,11.75
2019-05-17T10:05:46.641Z,11.76
2019-05-17T10:11:04.942Z,11.73
2019-05-17T10:16:00.484Z,11.87
2019-05-17T10:21:06.222Z,11.89
2019-05-17T10:26:11.487Z,11.98
2019-05-17T10:31:19.729Z,12.05
2019-05-17T10:36:25.364Z,12.32
2019-05-17T10:41:30.696Z,12.42
2019-05-17T10:46:35.955Z,12.60
2019-05-17T10:51:41.463Z,12.64
2019-05-17T10:56:46.696Z,13.05
2019-05-17T11:01:51.923Z,13.24
2019-05-17T11:06:59.480Z,13.70
2019-05-17T11:12:04.417Z,13.95
2019-05-17T11:17:09.802Z,14.49
2019-05-17T11:22:17.405Z,14.70
2019-05-17T11:27:23.144Z,14.63
2019-05-17T11:32:28.707Z,15.29
2019-05-17T11:37:33.964Z,16.06
2019-05-17T11:42:39.195Z,15.62
2019-05-17T11:47:44.640Z,16.36
2019-05-17T11:52:49.890Z,16.91
2019-05-17T11:57:55.161Z,16.16
2019-05-17T12:03:00.410Z,16.17
2019-05-17T12:08:08.654Z,16.32
2019-05-17T12:13:12.859Z,16.12
2019-05-17T12:18:18.543Z,16.31
2019-05-17T12:23:23.843Z,17.05
2019-05-17T12:28:29.515Z,17.61
2019-05-17T12:33:34.783Z,17.95
2019-05-17T12:38:40.295Z,19.22
2019-05-17T12:43:45.548Z,20.31
2019-05-17T12:48:51.827Z,19.34
2019-05-17T12:53:57.335Z,20.94
2019-05-17T12:59:03.195Z,21.54
2019-05-17T13:04:11.770Z,22.21
2019-05-17T13:09:17.703Z,20.46
2019-05-17T13:14:23.289Z,23.40
2019-05-17T13:19:28.697Z,20.83
2019-05-17T13:24:34.626Z,20.02
2019-05-17T13:29:40.859Z,20.03
2019-05-17T13:34:46.408Z,18.85
2019-05-17T13:39:51.748Z,18.11
2019-05-17T13:44:57.240Z,17.79
2019-05-17T13:50:02.564Z,17.37
2019-05-17T13:55:09.518Z,17.72
2019-05-17T14:00:15.321Z,17.44
2019-05-17T14:05:20.741Z,17.49
2019-05-17T14:10:28.616Z,17.33
2019-05-17T14:15:32.977Z,17.91
2019-05-17T14:20:38.212Z,18.17
2019-05-17T14:25:43.541Z,18.48
2019-05-17T14:30:48.808Z,18.45
2019-05-17T14:35:54.196Z,18.26
2019-05-17T14:41:06.266Z,17.98
2019-05-17T14:46:06.835Z,18.28
2019-05-17T14:51:12.075Z,17.90
2019-05-17T14:56:17.351Z,17.76
2019-05-17T15:01:22.665Z,19.25
2019-05-17T15:06:28.017Z,23.51
2019-05-17T15:11:33.388Z,26.15
2019-05-17T15:16:40.932Z,25.76
2019-05-17T15:21:46.263Z,27.27
2019-05-17T15:27:04.741Z,25.15
2019-05-17T15:31:58.842Z,22.47
2019-05-17T15:37:04.193Z,21.39
2019-05-17T15:42:10.074Z,24.23
2019-05-17T15:47:15.332Z,27.53
2019-05-17T15:52:20.828Z,27.71
2019-05-17T15:57:26.094Z,23.97
2019-05-17T16:02:31.321Z,22.97
2019-05-17T16:07:36.980Z,21.81
2019-05-17T16:12:42.248Z,20.83
2019-05-17T16:17:48.529Z,20.12
2019-05-17T16:22:53.846Z,19.72
2019-05-17T16:27:59.150Z,19.47
2019-05-17T16:33:04.387Z,18.65
2019-05-17T16:38:09.752Z,18.60
2019-05-17T16:43:18.397Z,18.36
2019-05-17T16:48:22.786Z,18.28
2019-05-17T16:53:28.036Z,18.03
2019-05-17T16:58:33.333Z,17.72
2019-05-17T17:03:44.236Z,17.33
2019-05-17T17:08:46.209Z,17.45
2019-05-17T17:13:53.556Z,17.18
2019-05-17T17:18:58.787Z,17.11
2019-05-17T17:24:05.305Z,16.90
2019-05-17T17:29:10.527Z,16.90
2019-05-17T17:34:15.851Z,16.73
2019-05-17T17:39:21.707Z,16.52
2019-05-17T17:44:27.351Z,16.29
2019-05-17T17:49:32.636Z,16.45
2019-05-17T17:54:38.324Z,16.27
2019-05-17T17:59:43.843Z,16.25
2019-05-17T18:04:49.177Z,16.26
2019-05-17T18:09:54.761Z,16.15
2019-05-17T18:15:03.431Z,16.07
2019-05-17T18:20:07.460Z,16.00
2019-05-17T18:25:13.000Z,15.72
2019-05-17T18:30:18.888Z,15.58
2019-05-17T18:35:24.388Z,15.43
2019-05-17T18:40:29.771Z,15.38
2019-05-17T18:45:35.039Z,15.20
2019-05-17T18:50:40.325Z,15.06
2019-05-17T18:55:45.655Z,14.94
2019-05-17T19:00:50.878Z,14.81
2019-05-17T19:05:56.368Z,14.67
2019-05-17T19:11:01.683Z,14.49
2019-05-17T19:16:07.305Z,14.37
2019-05-17T19:21:12.858Z,14.23
2019-05-17T19:26:19.244Z,14.04
2019-05-17T19:31:24.518Z,13.96
2019-05-17T19:36:29.833Z,13.81
2019-05-17T19:41:35.550Z,13.65
2019-05-17T19:46:41.088Z,13.65
2019-05-17T19:51:46.473Z,13.55
2019-05-17T19:56:52.206Z,13.46
2019-05-17T20:01:57.502Z,13.45
2019-05-17T20:07:02.804Z,13.44
2019-05-17T20:12:08.145Z,13.44
2019-05-17T20:17:13.411Z,13.42
2019-05-17T20:22:18.629Z,13.38
2019-05-17T20:27:23.958Z,13.37
2019-05-17T20:32:29.177Z,13.32
2019-05-17T20:37:34.471Z,13.25
2019-05-17T20:42:39.858Z,13.20
2019-05-17T20:47:45.197Z,13.15
2019-05-17T20:52:50.357Z,13.05
2019-05-17T20:57:55.580Z,12.93
2019-05-17T21:03:01.671Z,12.83
2019-05-17T21:08:06.913Z,12.86
2019-05-17T21:13:12.471Z,12.82
2019-05-17T21:18:18.066Z,12.78
2019-05-17T21:23:23.612Z,12.71
2019-05-17T21:28:29.246Z,12.73
2019-05-17T21:33:34.970Z,12.65
2019-05-17T21:38:40.571Z,12.57
2019-05-17T21:43:46.444Z,12.35
2019-05-17T21:48:51.764Z,12.21
2019-05-17T21:53:56.996Z,12.16
2019-05-17T21:59:02.734Z,12.27
2019-05-17T22:04:08.071Z,12.17
2019-05-17T22:09:13.792Z,12.13
2019-05-17T22:14:19.151Z,12.24
2019-05-17T22:19:24.718Z,12.29
2019-05-17T22:24:31.577Z,12.37
2019-05-17T22:29:36.810Z,12.30
2019-05-17T22:34:42.401Z,12.39
2019-05-17T22:39:47.780Z,12.46
2019-05-17T22:44:53.042Z,12.43
2019-05-17T22:49:58.296Z,12.41
2019-05-17T22:55:03.666Z,12.46
2019-05-17T23:00:09.464Z,12.43
2019-05-17T23:05:16.706Z,12.24
2019-05-17T23:10:22.342Z,12.29
2019-05-17T23:15:31.663Z,12.21
2019-05-17T23:20:38.064Z,12.17
2019-05-17T23:25:43.631Z,12.10
2019-05-17T23:30:49.387Z,11.92
2019-05-17T23:35:54.785Z,11.83
2019-05-17T23:41:00.011Z,11.73
2019-05-17T23:46:05.289Z,11.70
2019-05-17T23:51:11.080Z,11.67
2019-05-17T23:56:17.459Z,11.70
